Sonic Adventure (DX): Boss Rankings

Records: Times | Rings | Scores | Races | Bosses | Freestyle
Leaders: Times | Rings | Scores | Races | Bosses | Freestyle | Overall
Rank Player Percent Points Date
1 Sonicspeedruner 98.7% 26 04-24-15
2 Gamepro011 97.1% 58 04-24-15
3 Austinf 93.3% 134 04-24-15
4 DarkPolarNight 92.3% 155 04-24-15
5 Jawzun 90.6% 190 04-24-15
6 Parax 88.8% 226 04-24-15
7 ike6252 88.4% 234 04-24-15
8 Dashjump 86.4% 275 04-24-15
9 Avento128bits 85.7% 288 04-24-15
10 DarkspinesSonic 82.8% 348 04-24-15
11 Coolfansonic 81.0% 384 04-24-15
12 THC98 79.5% 413 04-24-15
13 F-Man 78.2% 440 04-24-15
14 TheRealShadnic 77.8% 448 04-24-15
15 Marth 77.3% 458 04-24-15
16 yoshifan 75.7% 491 04-24-15
17 PfoSonic 74.0% 526 04-24-15
18 InferSaime 73.6% 534 04-24-15
19 HyperSonic7701 71.9% 567 04-24-15
20 RPGnutter 71.0% 586 04-24-15
21 Paragod 69.4% 619 04-24-15
22 drminus 69.0% 627 04-24-15
23 frankoredstrato 68.8% 630 04-24-15
23 mike89 68.8% 630 04-24-15
25 Groudon199 64.5% 718 04-24-15
26 sonicam 64.3% 721 04-24-15
27 SadisticMystic 63.6% 735 04-24-15
28 Stefan 62.4% 760 04-24-15
29 Diamond 61.3% 783 04-24-15
30 Combo 58.4% 840 04-24-15
31 bertin 58.3% 843 04-24-15
32 xXMegaManXx 56.5% 880 04-24-15
33 SkyLights 55.8% 893 04-24-15
34 Dawid8404 51.9% 973 04-24-15
35 Fr3nZy 50.3% 1005 04-24-15
36 francisco 50.0% 1011 04-24-15
37 OmegaDJ 47.7% 1058 04-24-15
38 Omega Rafael Santos 46.4% 1083 04-24-15
39 Arch 46.3% 1086 04-24-15
40 P1 Pause 45.1% 1110 04-24-15
41 Andrea Ritsu 42.6% 1161 04-24-15
42 magnum12 42.5% 1162 04-24-15
43 Auriman1 38.5% 1243 04-24-15
44 James_Bertolli 36.0% 1294 04-24-15
45 teamblackarms 34.4% 1326 04-24-15
46 FuzZerd 33.8% 1338 04-24-15
47 Hunters13 33.6% 1343 04-24-15
48 Psymar 32.5% 1365 04-24-15
49 Quartz 32.5% 1366 04-24-15
50 eggFL 32.1% 1374 04-24-15
51 Cyan Ryan 31.8% 1380 04-24-15
52 GerbilSoft 30.8% 1399 04-24-15
53 elecmouse101 30.5% 1405 04-24-15
54 Thorn 30.4% 1408 04-24-15
55 Webber3000 30.1% 1414 04-24-15
56 videogamemaster777 29.7% 1422 04-24-15
57 Mo Player Banned 28.9% 1438 04-24-15
58 Mariobutch 28.6% 1445 04-24-15
59 Turbos 28.2% 1452 04-24-15
60 Termon 27.6% 1465 04-24-15
61 Dave Cramer 26.2% 1492 04-24-15
62 Flying Fox 26.0% 1497 04-24-15
63 buddychaos0415 25.5% 1506 04-24-15
64 nuckrieg 25.1% 1515 04-24-15
65 Shadow Jacky 23.8% 1541 04-24-15
66 Cream147 21.5% 1588 04-24-15
67 supersonicfan 21.2% 1594 04-24-15
68 MiStEr_ShAoLiN 21.0% 1598 04-24-15
69 NintenDan 20.8% 1601 04-24-15
70 itsPersonnal 20.7% 1604 04-24-15
71 Nimrod 20.7% 1605 04-24-15
72 The T 20.6% 1606 04-24-15
73 Cybrax 20.3% 1612 04-24-15
74 supersonic465 20.1% 1616 04-24-15
75 Aitamen 19.6% 1627 04-24-15
76 SonicWinDX 19.0% 1638 04-24-15
77 Cruizer 19.0% 1639 04-24-15
78 VMU Player Banned 18.0% 1658 04-24-15
79 Game_Complete 17.5% 1668 04-24-15
80 The Great Lord Mick 16.6% 1686 04-24-15
81 Drakodan 16.1% 1698 04-24-15
82 Questionguy555 15.9% 1701 04-24-15
83 GreatStar 15.8% 1703 04-24-15
84 Spinballwizard 15.2% 1716 04-24-15
85 Sondow 14.4% 1731 04-24-15
86 sonicandamy 14.3% 1734 04-24-15
87 GarnetPrincess 13.2% 1755 04-24-15
88 SonicAD 12.3% 1775 04-24-15
89 Don 11.4% 1792 04-24-15
90 Miles9999 11.2% 1797 04-24-15
91 Siavash Tazari 10.8% 1804 04-24-15
92 BigAL49 10.4% 1813 04-24-15
93 Werey 10.1% 1818 04-24-15
94 Psyknux 10.0% 1820 04-24-15
95 Cutiefox 9.9% 1823 04-24-15
96 joecoolgames 9.8% 1824 04-24-15
97 knuckles_sonic8 9.7% 1827 04-24-15
98 mauserman 9.4% 1833 04-24-15
99 EngiNerd 8.8% 1845 04-24-15
100 Sonic Singularity 8.6% 1848 04-24-15
101 dShadow 8.5% 1851 04-24-15
102 Hipertails12 8.3% 1856 04-24-15
103 Shanekilz 8.0% 1861 04-24-15
104 Therio 7.7% 1868 04-24-15
105 Mastakirby 7.6% 1870 04-24-15
106 chainchumper 7.2% 1878 04-24-15
107 sonic29887 7.0% 1882 04-24-15
108 TheChaosEmeraIds 6.8% 1885 04-24-15
109 FocusSight64 6.7% 1888 04-24-15
110 Chao_Fan 6.6% 1889 04-24-15
111 tal39h 6.1% 1900 04-24-15
112 djmat 6.0% 1902 04-24-15
113 paulie9990 5.8% 1906 04-24-15
114 Sogeking 5.5% 1912 04-24-15
115 Brian_pso 5.0% 1921 04-24-15
116 Chawkk 5.0% 1922 04-24-15
117 SilvertheAlmighty 4.7% 1928 04-24-15
118 MK 4.5% 1931 04-24-15
118 SpinDashMaster 4.5% 1931 04-24-15
120 MastaToken 4.3% 1935 04-24-15
121 SpiritDragon1995 3.9% 1944 04-24-15
122 Sonique Hedgehog 3.8% 1946 04-24-15
123 KinkyCadence 3.6% 1950 04-24-15
124 Mad Andy 3.5% 1952 04-24-15
125 PsyBorg 3.4% 1955 04-24-15
126 FSSRandomvids 3.2% 1958 04-24-15
127 Xia 2.9% 1964 04-24-15
128 Rolken 2.9% 1965 04-24-15
129 andres430 2.6% 1971 04-24-15
130 crazy1993 2.2% 1978 04-24-15
130 dabestgamer 2.2% 1978 04-24-15
132 shadowblast63 Player Banned 2.2% 1979 04-24-15
133 Illidan 2.1% 1981 04-24-15
134 Richied 2.0% 1982 04-24-15
135 DanielTheFalcon 1.8% 1986 04-24-15
135 gamer1245 1.8% 1986 04-24-15
137 Iwannabelink 1.8% 1987 04-24-15
138 oTaiIilLsS 1.4% 1995 04-24-15
139 soniccoloursunleashed 1.3% 1997 04-24-15
140 niscool 1.2% 1998 04-24-15
141 ieatatsonic 1.1% 2001 04-24-15
142 Redd 1.0% 2002 04-24-15
143 Lil_Dude 0.7% 2008 04-24-15
143 LinksDarkArrows 0.7% 2008 04-24-15
145 Cbwade15 0.4% 2014 04-24-15
146 neaolas 0.3% 2017 04-24-15
147 BlankTH 0.2% 2019 04-24-15
148 Heroes_Hater 0.1% 2020 04-24-15
149 S-MS32X-S 0.0% 2022 04-24-15
150 KaM Mark MaK 0.0% 2024 04-24-15
150 MegabombBlade 0.0% 2024 04-24-15

This page is using the New Data Table System. [FUTURE]

Game ID: 3 | Category ID: 6
Hits: 3,905 | Hits This Month: 20 | DB Calls: 24 | Mem Usage: 5.34 MB | Time: 0.07s | Printable

The Sonic Center v3.9
Copyright 2003-2011 by The Sonic Center Team.